sensor_id;sensor_type;location;lat;lon;timestamp;pressure;altitude;pressure_sealevel;temperature;humidity
7824;BME280;3957;48.61947800;9.05303100;2023-02-01T00:00:40;96737.66;;;0.37;100.00
7824;BME280;3957;48.61947800;9.05303100;2023-02-01T00:01:40;96731.88;;;0.43;100.00
7824;BME280;3957;48.61947800;9.05303100;2023-02-01T00:02:41;96734.03;;;0.49;100.00
7824;BME280;3957;48.61947800;9.05303100;2023-02-01T00:03:41;96729.13;;;0.56;100.00
7824;BME280;3957;48.61947800;9.05303100;2023-02-01T00:04:42;96729.97;;;0.45;100.00
7824;BME280;3957;48.61947800;9.05303100;2023-02-01T00:05:42;96724.00;;;0.43;100.00
7824;BME280;3957;48.61947800;9.05303100;2023-02-01T00:06:42;96728.91;;;0.47;100.00
7824;BME280;3957;48.61947800;9.05303100;2023-02-01T00:07:46;96723.38;;;0.50;100.00
7824;BME280;3957;48.61947800;9.05303100;2023-02-01T00:08:48;96731.03;;;0.54;100.00
7824;BME280;3957;48.61947800;9.05303100;2023-02-01T00:09:52;96726.00;;;0.50;100.00
7824;BME280;3957;48.61947800;9.05303100;2023-02-01T00:11:03;96729.97;;;0.45;100.00
7824;BME280;3957;48.61947800;9.05303100;2023-02-01T00:12:04;96735.13;;;0.46;100.00
7824;BME280;3957;48.61947800;9.05303100;2023-02-01T00:13:04;96730.44;;;0.50;100.00
7824;BME280;3957;48.61947800;9.05303100;2023-02-01T00:14:04;96727.22;;;0.46;100.00
7824;BME280;3957;48.61947800;9.05303100;2023-02-01T00:15:05;96730.69;;;0.47;100.00
7824;BME280;3957;48.61947800;9.05303100;2023-02-01T00:16:09;96729.03;;;0.46;100.00
7824;BME280;3957;48.61947800;9.05303100;2023-02-01T00:17:09;96729.25;;;0.43;100.00
7824;BME280;3957;48.61947800;9.05303100;2023-02-01T00:18:10;96722.56;;;0.39;100.00
7824;BME280;3957;48.61947800;9.05303100;2023-02-01T00:19:12;96722.94;;;0.34;100.00
7824;BME280;3957;48.61947800;9.05303100;2023-02-01T00:20:14;96717.44;;;0.37;100.00
7824;BME280;3957;48.61947800;9.05303100;2023-02-01T00:21:17;96722.78;;;0.47;100.00
7824;BME280;3957;48.61947800;9.05303100;2023-02-01T00:22:18;96723.03;;;0.44;100.00
7824;BME280;3957;48.61947800;9.05303100;2023-02-01T00:23:18;96722.09;;;0.45;100.00
7824;BME280;3957;48.61947800;9.05303100;2023-02-01T00:24:19;96720.53;;;0.42;100.00
7824;BME280;3957;48.61947800;9.05303100;2023-02-01T00:25:19;96715.53;;;0.39;100.00
7824;BME280;3957;48.61947800;9.05303100;2023-02-01T00:26:27;96713.59;;;0.41;100.00
7824;BME280;3957;48.61947800;9.05303100;2023-02-01T00:27:30;96714.06;;;0.46;100.00
7824;BME280;3957;48.61947800;9.05303100;2023-02-01T00:28:31;96715.34;;;0.52;100.00
7824;BME280;3957;48.61947800;9.05303100;2023-02-01T00:29:31;96716.63;;;0.58;100.00
7824;BME280;3957;48.61947800;9.05303100;2023-02-01T00:30:32;96717.84;;;0.54;100.00
7824;BME280;3957;48.61947800;9.05303100;2023-02-01T00:31:32;96706.38;;;0.55;100.00
7824;BME280;3957;48.61947800;9.05303100;2023-02-01T00:32:33;96705.41;;;0.56;100.00
7824;BME280;3957;48.61947800;9.05303100;2023-02-01T00:33:33;96704.13;;;0.50;100.00
7824;BME280;3957;48.61947800;9.05303100;2023-02-01T00:34:34;96708.16;;;0.54;100.00
7824;BME280;3957;48.61947800;9.05303100;2023-02-01T00:35:35;96713.31;;;0.56;100.00
7824;BME280;3957;48.61947800;9.05303100;2023-02-01T00:36:35;96706.75;;;0.50;100.00
7824;BME280;3957;48.61947800;9.05303100;2023-02-01T00:37:36;96706.03;;;0.48;100.00
7824;BME280;3957;48.61947800;9.05303100;2023-02-01T00:38:37;96705.81;;;0.40;100.00
7824;BME280;3957;48.61947800;9.05303100;2023-02-01T00:39:39;96705.91;;;0.49;100.00
7824;BME280;3957;48.61947800;9.05303100;2023-02-01T00:40:40;96712.25;;;0.47;100.00
7824;BME280;3957;48.61947800;9.05303100;2023-02-01T00:41:40;96706.66;;;0.40;100.00
7824;BME280;3957;48.61947800;9.05303100;2023-02-01T00:42:40;96701.75;;;0.36;100.00
7824;BME280;3957;48.61947800;9.05303100;2023-02-01T00:43:41;96705.34;;;0.46;100.00
7824;BME280;3957;48.61947800;9.05303100;2023-02-01T00:44:42;96695.28;;;0.40;100.00
7824;BME280;3957;48.61947800;9.05303100;2023-02-01T00:45:42;96697.31;;;0.47;100.00
7824;BME280;3957;48.61947800;9.05303100;2023-02-01T00:46:43;96699.47;;;0.42;100.00
7824;BME280;3957;48.61947800;9.05303100;2023-02-01T00:47:43;96698.06;;;0.38;100.00
7824;BME280;3957;48.61947800;9.05303100;2023-02-01T00:48:44;96698.06;;;0.38;100.00
7824;BME280;3957;48.61947800;9.05303100;2023-02-01T00:49:44;96699.34;;;0.44;100.00
7824;BME280;3957;48.61947800;9.05303100;2023-02-01T00:50:45;96698.97;;;0.48;100.00
7824;BME280;3957;48.61947800;9.05303100;2023-02-01T00:51:45;96699.22;;;0.45;100.00
7824;BME280;3957;48.61947800;9.05303100;2023-02-01T00:52:46;96688.94;;;0.42;100.00
7824;BME280;3957;48.61947800;9.05303100;2023-02-01T00:53:46;96686.44;;;0.41;100.00
7824;BME280;3957;48.61947800;9.05303100;2023-02-01T00:54:47;96688.56;;;0.47;100.00
7824;BME280;3957;48.61947800;9.05303100;2023-02-01T00:55:48;96688.69;;;0.45;100.00
7824;BME280;3957;48.61947800;9.05303100;2023-02-01T00:56:48;96689.66;;;0.44;100.00
7824;BME280;3957;48.61947800;9.05303100;2023-02-01T00:57:49;96694.06;;;0.44;100.00
7824;BME280;3957;48.61947800;9.05303100;2023-02-01T00:58:50;96684.28;;;0.34;100.00
7824;BME280;3957;48.61947800;9.05303100;2023-02-01T00:59:50;96680.84;;;0.34;100.00
7824;BME280;3957;48.61947800;9.05303100;2023-02-01T01:01:21;96677.72;;;0.29;100.00
7824;BME280;3957;48.61947800;9.05303100;2023-02-01T01:02:22;96682.78;;;0.32;100.00
7824;BME280;3957;48.61947800;9.05303100;2023-02-01T01:03:22;96680.13;;;0.32;100.00
7824;BME280;3957;48.61947800;9.05303100;2023-02-01T01:04:22;96682.25;;;0.38;100.00
7824;BME280;3957;48.61947800;9.05303100;2023-02-01T01:05:23;96676.53;;;0.33;100.00
7824;BME280;3957;48.61947800;9.05303100;2023-02-01T01:06:29;96681.44;;;0.38;100.00
7824;BME280;3957;48.61947800;9.05303100;2023-02-01T01:07:30;96682.50;;;0.35;100.00
7824;BME280;3957;48.61947800;9.05303100;2023-02-01T01:08:30;96677.50;;;0.32;100.00
7824;BME280;3957;48.61947800;9.05303100;2023-02-01T01:09:31;96678.16;;;0.45;100.00
7824;BME280;3957;48.61947800;9.05303100;2023-02-01T01:10:32;96689.53;;;0.46;100.00
7824;BME280;3957;48.61947800;9.05303100;2023-02-01T01:11:35;96687.59;;;0.48;100.00
7824;BME280;3957;48.61947800;9.05303100;2023-02-01T01:12:36;96686.44;;;0.41;100.00
7824;BME280;3957;48.61947800;9.05303100;2023-02-01T01:13:36;96689.66;;;0.44;100.00
7824;BME280;3957;48.61947800;9.05303100;2023-02-01T01:14:37;96686.03;;;0.45;100.00
7824;BME280;3957;48.61947800;9.05303100;2023-02-01T01:15:39;96693.38;;;0.42;100.00
7824;BME280;3957;48.61947800;9.05303100;2023-02-01T01:16:39;96685.97;;;0.36;100.00
7824;BME280;3957;48.61947800;9.05303100;2023-02-01T01:17:40;96696.25;;;0.39;100.00
7824;BME280;3957;48.61947800;9.05303100;2023-02-01T01:18:40;96694.88;;;0.56;100.00
7824;BME280;3957;48.61947800;9.05303100;2023-02-01T01:19:41;96691.19;;;0.47;100.00
7824;BME280;3957;48.61947800;9.05303100;2023-02-01T01:20:41;96690.44;;;0.56;100.00
7824;BME280;3957;48.61947800;9.05303100;2023-02-01T01:21:42;96691.66;;;0.52;100.00
7824;BME280;3957;48.61947800;9.05303100;2023-02-01T01:22:42;96689.00;;;0.52;100.00
7824;BME280;3957;48.61947800;9.05303100;2023-02-01T01:23:43;96679.56;;;0.49;100.00
7824;BME280;3957;48.61947800;9.05303100;2023-02-01T01:24:44;96672.53;;;0.50;100.00
7824;BME280;3957;48.61947800;9.05303100;2023-02-01T01:25:45;96676.72;;;0.53;100.00
7824;BME280;3957;48.61947800;9.05303100;2023-02-01T01:26:45;96667.63;;;0.45;100.00
7824;BME280;3957;48.61947800;9.05303100;2023-02-01T01:27:46;96664.97;;;0.45;100.00
7824;BME280;3957;48.61947800;9.05303100;2023-02-01T01:28:46;96669.03;;;0.49;100.00
7824;BME280;3957;48.61947800;9.05303100;2023-02-01T01:29:47;96672.88;;;0.45;100.00
7824;BME280;3957;48.61947800;9.05303100;2023-02-01T01:30:47;96676.38;;;0.46;100.00
7824;BME280;3957;48.61947800;9.05303100;2023-02-01T01:31:48;96674.09;;;0.41;100.00
7824;BME280;3957;48.61947800;9.05303100;2023-02-01T01:32:48;96675.97;;;0.50;100.00
7824;BME280;3957;48.61947800;9.05303100;2023-02-01T01:33:50;96667.63;;;0.45;100.00
7824;BME280;3957;48.61947800;9.05303100;2023-02-01T01:34:51;96666.03;;;0.54;100.00
7824;BME280;3957;48.61947800;9.05303100;2023-02-01T01:35:52;96663.47;;;0.64;100.00
7824;BME280;3957;48.61947800;9.05303100;2023-02-01T01:36:52;96667.00;;;0.53;100.00
7824;BME280;3957;48.61947800;9.05303100;2023-02-01T01:37:54;96659.91;;;0.54;100.00
7824;BME280;3957;48.61947800;9.05303100;2023-02-01T01:38:54;96667.69;;;0.55;100.00
7824;BME280;3957;48.61947800;9.05303100;2023-02-01T01:39:55;96664.56;;;0.61;100.00
7824;BME280;3957;48.61947800;9.05303100;2023-02-01T01:40:56;96660.19;;;0.50;100.00
7824;BME280;3957;48.61947800;9.05303100;2023-02-01T01:41:56;96659.78;;;0.55;100.00
7824;BME280;3957;48.61947800;9.05303100;2023-02-01T01:42:59;96654.22;;;0.48;100.00
7824;BME280;3957;48.61947800;9.05303100;2023-02-01T01:44:02;96660.19;;;0.50;100.00
7824;BME280;3957;48.61947800;9.05303100;2023-02-01T01:45:07;96662.56;;;0.54;100.00
7824;BME280;3957;48.61947800;9.05303100;2023-02-01T01:46:08;96656.59;;;0.52;100.00
7824;BME280;3957;48.61947800;9.05303100;2023-02-01T01:47:09;96659.22;;;0.52;100.00
7824;BME280;3957;48.61947800;9.05303100;2023-02-01T01:48:27;96659.34;;;0.50;100.00
7824;BME280;3957;48.61947800;9.05303100;2023-02-01T01:49:28;96659.34;;;0.50;100.00
7824;BME280;3957;48.61947800;9.05303100;2023-02-01T01:50:31;96659.59;;;0.47;100.00
7824;BME280;3957;48.61947800;9.05303100;2023-02-01T01:51:38;96655.38;;;0.56;100.00
7824;BME280;3957;48.61947800;9.05303100;2023-02-01T01:52:40;96655.13;;;0.59;100.00
7824;BME280;3957;48.61947800;9.05303100;2023-02-01T01:53:53;96655.88;;;0.49;100.00
7824;BME280;3957;48.61947800;9.05303100;2023-02-01T01:54:57;96653.69;;;0.55;100.00
7824;BME280;3957;48.61947800;9.05303100;2023-02-01T01:56:00;96660.31;;;0.49;100.00
7824;BME280;3957;48.61947800;9.05303100;2023-02-01T01:57:05;96657.22;;;0.44;100.00
7824;BME280;3957;48.61947800;9.05303100;2023-02-01T01:58:13;96651.19;;;0.53;100.00
7824;BME280;3957;48.61947800;9.05303100;2023-02-01T01:59:14;96651.88;;;0.55;100.00
7824;BME280;3957;48.61947800;9.05303100;2023-02-01T02:00:18;96660.78;;;0.54;100.00
7824;BME280;3957;48.61947800;9.05303100;2023-02-01T02:01:20;96660.25;;;0.60;100.00
7824;BME280;3957;48.61947800;9.05303100;2023-02-01T02:02:20;96655.44;;;0.65;100.00
7824;BME280;3957;48.61947800;9.05303100;2023-02-01T02:03:30;96652.09;;;0.63;100.00
7824;BME280;3957;48.61947800;9.05303100;2023-02-01T02:04:35;96657.53;;;0.50;100.00
7824;BME280;3957;48.61947800;9.05303100;2023-02-01T02:05:36;96644.13;;;0.54;100.00
7824;BME280;3957;48.61947800;9.05303100;2023-02-01T02:06:47;96653.31;;;0.59;100.00
7824;BME280;3957;48.61947800;9.05303100;2023-02-01T02:07:53;96652.75;;;0.56;100.00
7824;BME280;3957;48.61947800;9.05303100;2023-02-01T02:08:56;96639.44;;;0.57;100.00
7824;BME280;3957;48.61947800;9.05303100;2023-02-01T02:09:57;96640.78;;;0.52;100.00
7824;BME280;3957;48.61947800;9.05303100;2023-02-01T02:10:57;96636.09;;;0.55;100.00
7824;BME280;3957;48.61947800;9.05303100;2023-02-01T02:12:01;96632.97;;;0.61;100.00
7824;BME280;3957;48.61947800;9.05303100;2023-02-01T02:13:01;96624.94;;;0.63;100.00
7824;BME280;3957;48.61947800;9.05303100;2023-02-01T02:14:03;96626.88;;;0.61;100.00
7824;BME280;3957;48.61947800;9.05303100;2023-02-01T02:15:08;96636.88;;;0.67;100.00
7824;BME280;3957;48.61947800;9.05303100;2023-02-01T02:17:35;96625.53;;;0.66;100.00
7824;BME280;3957;48.61947800;9.05303100;2023-02-01T02:21:14;96629.56;;;0.71;100.00
7824;BME280;3957;48.61947800;9.05303100;2023-02-01T02:22:35;96632.75;;;0.74;100.00
7824;BME280;3957;48.61947800;9.05303100;2023-02-01T02:24:03;96627.56;;;0.63;100.00
7824;BME280;3957;48.61947800;9.05303100;2023-02-01T02:25:26;96619.84;;;0.71;100.00
7824;BME280;3957;48.61947800;9.05303100;2023-02-01T02:26:48;96631.22;;;0.72;100.00
7824;BME280;3957;48.61947800;9.05303100;2023-02-01T02:37:07;96633.22;;;0.79;100.00
7824;BME280;3957;48.61947800;9.05303100;2023-02-01T02:38:20;96616.06;;;0.85;100.00
7824;BME280;3957;48.61947800;9.05303100;2023-02-01T02:40:49;96627.81;;;0.81;100.00
7824;BME280;3957;48.61947800;9.05303100;2023-02-01T02:43:35;96626.84;;;0.82;100.00
7824;BME280;3957;48.61947800;9.05303100;2023-02-01T02:45:44;96624.59;;;0.77;100.00
7824;BME280;3957;48.61947800;9.05303100;2023-02-01T02:46:46;96624.72;;;0.76;100.00
7824;BME280;3957;48.61947800;9.05303100;2023-02-01T02:49:21;96622.81;;;0.78;100.00
7824;BME280;3957;48.61947800;9.05303100;2023-02-01T02:51:15;96632.56;;;0.87;100.00
7824;BME280;3957;48.61947800;9.05303100;2023-02-01T02:52:45;96621.59;;;0.82;100.00
7824;BME280;3957;48.61947800;9.05303100;2023-02-01T02:54:16;96626.59;;;0.85;100.00
7824;BME280;3957;48.61947800;9.05303100;2023-02-01T02:55:38;96620.31;;;0.76;100.00
7824;BME280;3957;48.61947800;9.05303100;2023-02-01T02:56:41;96621.59;;;0.82;100.00
7824;BME280;3957;48.61947800;9.05303100;2023-02-01T02:58:02;96615.34;;;0.83;100.00
7824;BME280;3957;48.61947800;9.05303100;2023-02-01T02:59:24;96620.38;;;0.86;100.00
7824;BME280;3957;48.61947800;9.05303100;2023-02-01T03:00:45;96616.06;;;0.85;100.00
7824;BME280;3957;48.61947800;9.05303100;2023-02-01T03:02:04;96611.50;;;0.87;100.00
7824;BME280;3957;48.61947800;9.05303100;2023-02-01T03:03:24;96612.19;;;0.89;100.00
7824;BME280;3957;48.61947800;9.05303100;2023-02-01T03:04:43;96603.84;;;0.84;100.00
7824;BME280;3957;48.61947800;9.05303100;2023-02-01T03:05:45;96610.91;;;0.83;100.00
7824;BME280;3957;48.61947800;9.05303100;2023-02-01T03:06:47;96613.00;;;0.90;100.00
7824;BME280;3957;48.61947800;9.05303100;2023-02-01T03:08:04;96611.19;;;0.80;100.00
7824;BME280;3957;48.61947800;9.05303100;2023-02-01T03:09:08;96612.81;;;0.81;100.00
7824;BME280;3957;48.61947800;9.05303100;2023-02-01T03:10:17;96619.31;;;0.77;100.00
7824;BME280;3957;48.61947800;9.05303100;2023-02-01T03:11:22;96613.28;;;0.87;100.00
7824;BME280;3957;48.61947800;9.05303100;2023-02-01T03:12:23;96623.13;;;0.84;100.00
7824;BME280;3957;48.61947800;9.05303100;2023-02-01T03:13:53;96615.16;;;0.96;100.00
7824;BME280;3957;48.61947800;9.05303100;2023-02-01T03:15:03;96616.38;;;0.92;100.00
7824;BME280;3957;48.61947800;9.05303100;2023-02-01T03:17:35;96606.56;;;0.73;100.00
7824;BME280;3957;48.61947800;9.05303100;2023-02-01T03:19:32;96601.16;;;0.74;100.00
7824;BME280;3957;48.61947800;9.05303100;2023-02-01T03:20:24;96604.25;;;0.79;100.00
7824;BME280;3957;48.61947800;9.05303100;2023-02-01T03:21:30;96596.16;;;0.71;100.00
7824;BME280;3957;48.61947800;9.05303100;2023-02-01T03:22:33;96600.31;;;0.74;100.00
7824;BME280;3957;48.61947800;9.05303100;2023-02-01T03:23:36;96594.72;;;0.67;100.00
7824;BME280;3957;48.61947800;9.05303100;2023-02-01T03:24:42;96604.38;;;0.78;100.00
7824;BME280;3957;48.61947800;9.05303100;2023-02-01T03:25:47;96615.88;;;0.77;100.00
7824;BME280;3957;48.61947800;9.05303100;2023-02-01T03:26:54;96610.41;;;0.68;100.00
7824;BME280;3957;48.61947800;9.05303100;2023-02-01T03:27:59;96614.31;;;0.74;100.00
7824;BME280;3957;48.61947800;9.05303100;2023-02-01T03:29:14;96625.00;;;0.73;100.00
7824;BME280;3957;48.61947800;9.05303100;2023-02-01T03:30:21;96619.59;;;0.74;100.00
7824;BME280;3957;48.61947800;9.05303100;2023-02-01T03:31:23;96630.38;;;0.71;100.00
7824;BME280;3957;48.61947800;9.05303100;2023-02-01T03:32:24;96619.13;;;0.69;100.00
7824;BME280;3957;48.61947800;9.05303100;2023-02-01T03:33:26;96618.91;;;0.72;100.00
7824;BME280;3957;48.61947800;9.05303100;2023-02-01T03:34:30;96620.69;;;0.72;100.00
7824;BME280;3957;48.61947800;9.05303100;2023-02-01T03:35:48;96616.44;;;0.80;100.00
7824;BME280;3957;48.61947800;9.05303100;2023-02-01T03:36:54;96620.72;;;0.81;100.00
7824;BME280;3957;48.61947800;9.05303100;2023-02-01T03:38:05;96615.59;;;0.80;100.00
7824;BME280;3957;48.61947800;9.05303100;2023-02-01T03:39:34;96607.38;;;0.73;100.00
7824;BME280;3957;48.61947800;9.05303100;2023-02-01T03:40:37;96608.41;;;0.82;100.00
7824;BME280;3957;48.61947800;9.05303100;2023-02-01T03:41:49;96603.16;;;0.82;100.00
7824;BME280;3957;48.61947800;9.05303100;2023-02-01T03:42:54;96601.59;;;0.79;100.00
7824;BME280;3957;48.61947800;9.05303100;2023-02-01T03:44:03;96604.56;;;0.86;100.00
7824;BME280;3957;48.61947800;9.05303100;2023-02-01T03:45:12;96602.75;;;0.87;100.00
7824;BME280;3957;48.61947800;9.05303100;2023-02-01T03:46:21;96602.47;;;0.90;100.00
7824;BME280;3957;48.61947800;9.05303100;2023-02-01T03:47:25;96594.97;;;0.85;100.00
7824;BME280;3957;48.61947800;9.05303100;2023-02-01T03:48:28;96599.41;;;0.84;100.00
7824;BME280;3957;48.61947800;9.05303100;2023-02-01T03:49:34;96601.59;;;0.79;100.00
7824;BME280;3957;48.61947800;9.05303100;2023-02-01T03:50:39;96593.44;;;0.82;100.00
7824;BME280;3957;48.61947800;9.05303100;2023-02-01T03:51:43;96589.53;;;0.77;100.00
7824;BME280;3957;48.61947800;9.05303100;2023-02-01T03:54:12;96595.63;;;0.77;100.00
7824;BME280;3957;48.61947800;9.05303100;2023-02-01T03:55:18;96576.75;;;0.72;100.00
7824;BME280;3957;48.61947800;9.05303100;2023-02-01T03:56:21;96585.53;;;0.82;100.00
7824;BME280;3957;48.61947800;9.05303100;2023-02-01T03:57:32;96582.06;;;0.82;100.00
7824;BME280;3957;48.61947800;9.05303100;2023-02-01T03:58:34;96578.72;;;0.80;100.00
7824;BME280;3957;48.61947800;9.05303100;2023-02-01T03:59:39;96586.47;;;0.81;100.00
7824;BME280;3957;48.61947800;9.05303100;2023-02-01T04:00:44;96578.03;;;0.78;100.00
7824;BME280;3957;48.61947800;9.05303100;2023-02-01T04:01:45;96578.47;;;0.83;100.00
7824;BME280;3957;48.61947800;9.05303100;2023-02-01T04:02:45;96571.13;;;0.87;100.00
7824;BME280;3957;48.61947800;9.05303100;2023-02-01T04:03:46;96563.94;;;0.89;100.00
7824;BME280;3957;48.61947800;9.05303100;2023-02-01T04:04:47;96565.72;;;0.88;100.00
7824;BME280;3957;48.61947800;9.05303100;2023-02-01T04:05:51;96562.66;;;0.83;100.00
7824;BME280;3957;48.61947800;9.05303100;2023-02-01T04:06:52;96552.19;;;0.93;100.00
7824;BME280;3957;48.61947800;9.05303100;2023-02-01T04:07:53;96554.38;;;0.88;100.00
7824;BME280;3957;48.61947800;9.05303100;2023-02-01T04:08:54;96549.78;;;0.90;100.00
7824;BME280;3957;48.61947800;9.05303100;2023-02-01T04:09:54;96555.31;;;0.87;100.00
7824;BME280;3957;48.61947800;9.05303100;2023-02-01T04:10:55;96557.63;;;0.80;100.00
7824;BME280;3957;48.61947800;9.05303100;2023-02-01T04:11:55;96546.06;;;0.92;100.00
7824;BME280;3957;48.61947800;9.05303100;2023-02-01T04:12:55;96545.75;;;0.85;100.00
7824;BME280;3957;48.61947800;9.05303100;2023-02-01T04:13:56;96554.88;;;0.81;100.00
7824;BME280;3957;48.61947800;9.05303100;2023-02-01T04:14:56;96540.91;;;0.91;100.00
7824;BME280;3957;48.61947800;9.05303100;2023-02-01T04:15:56;96539.13;;;0.91;100.00
7824;BME280;3957;48.61947800;9.05303100;2023-02-01T04:16:57;96531.22;;;0.91;100.00
7824;BME280;3957;48.61947800;9.05303100;2023-02-01T04:17:57;96541.63;;;0.93;100.00
7824;BME280;3957;48.61947800;9.05303100;2023-02-01T04:18:58;96539.13;;;0.91;100.00
7824;BME280;3957;48.61947800;9.05303100;2023-02-01T04:19:59;96538.41;;;0.89;100.00
7824;BME280;3957;48.61947800;9.05303100;2023-02-01T04:20:59;96552.97;;;0.83;100.00
7824;BME280;3957;48.61947800;9.05303100;2023-02-01T04:22:01;96564.91;;;0.88;100.00
7824;BME280;3957;48.61947800;9.05303100;2023-02-01T04:23:01;96579.22;;;0.95;100.00
7824;BME280;3957;48.61947800;9.05303100;2023-02-01T04:24:02;96580.16;;;0.94;100.00
7824;BME280;3957;48.61947800;9.05303100;2023-02-01T04:25:03;96574.06;;;0.93;100.00
7824;BME280;3957;48.61947800;9.05303100;2023-02-01T04:26:05;96575.03;;;0.92;100.00
7824;BME280;3957;48.61947800;9.05303100;2023-02-01T04:27:07;96576.88;;;1.01;100.00
7824;BME280;3957;48.61947800;9.05303100;2023-02-01T04:28:07;96574.84;;;1.05;100.00
7824;BME280;3957;48.61947800;9.05303100;2023-02-01T04:29:09;96580.09;;;1.05;100.00
7824;BME280;3957;48.61947800;9.05303100;2023-02-01T04:30:11;96585.41;;;1.15;100.00
7824;BME280;3957;48.61947800;9.05303100;2023-02-01T04:31:11;96581.50;;;1.09;100.00
7824;BME280;3957;48.61947800;9.05303100;2023-02-01T04:32:11;96574.00;;;1.14;100.00
7824;BME280;3957;48.61947800;9.05303100;2023-02-01T04:33:12;96565.13;;;1.06;100.00
7824;BME280;3957;48.61947800;9.05303100;2023-02-01T04:34:14;96573.34;;;1.12;100.00
7824;BME280;3957;48.61947800;9.05303100;2023-02-01T04:35:14;96577.88;;;1.10;100.00
7824;BME280;3957;48.61947800;9.05303100;2023-02-01T04:36:15;96583.97;;;1.01;100.00
7824;BME280;3957;48.61947800;9.05303100;2023-02-01T04:37:15;96586.66;;;1.11;100.00
7824;BME280;3957;48.61947800;9.05303100;2023-02-01T04:38:15;96586.81;;;1.19;100.00
7824;BME280;3957;48.61947800;9.05303100;2023-02-01T04:39:17;96583.59;;;1.15;100.00
7824;BME280;3957;48.61947800;9.05303100;2023-02-01T04:40:17;96572.19;;;1.05;100.00
7824;BME280;3957;48.61947800;9.05303100;2023-02-01T04:41:19;96568.72;;;1.05;100.00
7824;BME280;3957;48.61947800;9.05303100;2023-02-01T04:42:19;96577.84;;;1.00;100.00
7824;BME280;3957;48.61947800;9.05303100;2023-02-01T04:43:20;96574.38;;;1.00;100.00
7824;BME280;3957;48.61947800;9.05303100;2023-02-01T04:44:20;96581.63;;;1.08;100.00
7824;BME280;3957;48.61947800;9.05303100;2023-02-01T04:45:21;96574.25;;;1.01;100.00
7824;BME280;3957;48.61947800;9.05303100;2023-02-01T04:46:21;96579.78;;;0.98;100.00
7824;BME280;3957;48.61947800;9.05303100;2023-02-01T04:47:22;96571.63;;;1.01;100.00
7824;BME280;3957;48.61947800;9.05303100;2023-02-01T04:48:22;96581.25;;;1.12;100.00
7824;BME280;3957;48.61947800;9.05303100;2023-02-01T04:49:23;96570.69;;;1.12;100.00
7824;BME280;3957;48.61947800;9.05303100;2023-02-01T04:50:25;96575.69;;;1.15;100.00
7824;BME280;3957;48.61947800;9.05303100;2023-02-01T04:51:25;96568.59;;;1.16;100.00
7824;BME280;3957;48.61947800;9.05303100;2023-02-01T04:52:26;96561.41;;;1.18;100.00
7824;BME280;3957;48.61947800;9.05303100;2023-02-01T04:53:27;96558.66;;;1.19;100.00
7824;BME280;3957;48.61947800;9.05303100;2023-02-01T04:54:28;96561.59;;;1.26;100.00
7824;BME280;3957;48.61947800;9.05303100;2023-02-01T04:55:28;96562.38;;;1.17;100.00
7824;BME280;3957;48.61947800;9.05303100;2023-02-01T04:56:29;96573.88;;;1.16;100.00
7824;BME280;3957;48.61947800;9.05303100;2023-02-01T04:57:29;96572.53;;;1.22;100.00
7824;BME280;3957;48.61947800;9.05303100;2023-02-01T04:58:30;96572.66;;;1.20;100.00
7824;BME280;3957;48.61947800;9.05303100;2023-02-01T04:59:30;96571.38;;;1.14;100.00
7824;BME280;3957;48.61947800;9.05303100;2023-02-01T05:00:30;96568.19;;;1.11;100.00
7824;BME280;3957;48.61947800;9.05303100;2023-02-01T05:01:31;96565.69;;;1.09;100.00
7824;BME280;3957;48.61947800;9.05303100;2023-02-01T05:02:32;96571.94;;;1.08;100.00
7824;BME280;3957;48.61947800;9.05303100;2023-02-01T05:03:33;96571.75;;;1.00;100.00
7824;BME280;3957;48.61947800;9.05303100;2023-02-01T05:04:34;96570.06;;;0.99;100.00
7824;BME280;3957;48.61947800;9.05303100;2023-02-01T05:05:34;96563.00;;;0.99;100.00
7824;BME280;3957;48.61947800;9.05303100;2023-02-01T05:06:35;96568.72;;;1.05;100.00
7824;BME280;3957;48.61947800;9.05303100;2023-02-01T05:07:35;96571.63;;;1.01;100.00
7824;BME280;3957;48.61947800;9.05303100;2023-02-01T05:08:35;96567.44;;;0.99;100.00
7824;BME280;3957;48.61947800;9.05303100;2023-02-01T05:09:36;96561.53;;;1.07;100.00
7824;BME280;3957;48.61947800;9.05303100;2023-02-01T05:10:36;96554.56;;;1.06;100.00
7824;BME280;3957;48.61947800;9.05303100;2023-02-01T05:11:37;96556.81;;;1.10;100.00
7824;BME280;3957;48.61947800;9.05303100;2023-02-01T05:12:56;96555.66;;;1.03;100.00
7824;BME280;3957;48.61947800;9.05303100;2023-02-01T05:14:15;96555.56;;;1.14;100.00
7824;BME280;3957;48.61947800;9.05303100;2023-02-01T05:15:15;96548.06;;;1.10;100.00
7824;BME280;3957;48.61947800;9.05303100;2023-02-01T05:16:16;96554.16;;;1.10;100.00
7824;BME280;3957;48.61947800;9.05303100;2023-02-01T05:17:16;96553.63;;;1.07;100.00
7824;BME280;3957;48.61947800;9.05303100;2023-02-01T05:18:17;96556.28;;;1.16;100.00
7824;BME280;3957;48.61947800;9.05303100;2023-02-01T05:19:17;96560.84;;;1.14;100.00
7824;BME280;3957;48.61947800;9.05303100;2023-02-01T05:20:17;96557.91;;;1.08;100.00
7824;BME280;3957;48.61947800;9.05303100;2023-02-01T05:21:18;96556.13;;;1.08;100.00
7824;BME280;3957;48.61947800;9.05303100;2023-02-01T05:22:18;96551.66;;;1.09;100.00
7824;BME280;3957;48.61947800;9.05303100;2023-02-01T05:23:19;96553.75;;;1.05;100.00
7824;BME280;3957;48.61947800;9.05303100;2023-02-01T05:24:19;96545.53;;;0.98;100.00
7824;BME280;3957;48.61947800;9.05303100;2023-02-01T05:25:20;96540.31;;;1.08;100.00
7824;BME280;3957;48.61947800;9.05303100;2023-02-01T05:26:21;96539.44;;;1.08;100.00
7824;BME280;3957;48.61947800;9.05303100;2023-02-01T05:27:21;96540.69;;;1.04;100.00